createdAt,value
2023-04-16T00:01:41.696Z,5.20
2023-04-16T00:04:10.002Z,5.50
2023-04-16T00:06:38.303Z,7.40
2023-04-16T00:09:06.289Z,5.90
2023-04-16T00:11:34.751Z,5.50
2023-04-16T00:14:02.885Z,5.50
2023-04-16T00:16:31.540Z,4.20
2023-04-16T00:18:59.988Z,6.10
2023-04-16T00:21:28.579Z,7.40
2023-04-16T00:23:57.062Z,4.40
2023-04-16T00:26:25.443Z,5.60
2023-04-16T00:28:54.021Z,5.50
2023-04-16T00:31:32.337Z,5.00
2023-04-16T00:34:01.080Z,5.70
2023-04-16T00:36:29.712Z,5.00
2023-04-16T00:38:57.881Z,5.10
2023-04-16T00:41:26.973Z,4.70
2023-04-16T00:43:55.045Z,4.10
2023-04-16T00:46:24.623Z,6.10
2023-04-16T00:48:55.288Z,5.10
2023-04-16T00:51:23.978Z,5.30
2023-04-16T00:53:52.632Z,6.50
2023-04-16T00:56:24.132Z,5.30
2023-04-16T00:58:52.690Z,4.20
2023-04-16T01:01:20.998Z,4.50
2023-04-16T01:03:51.871Z,4.70
2023-04-16T01:06:20.204Z,6.90
2023-04-16T01:08:48.989Z,5.70
2023-04-16T01:11:17.688Z,4.80
2023-04-16T01:13:45.958Z,5.50
2023-04-16T01:16:14.892Z,5.20
2023-04-16T01:18:43.120Z,3.40
2023-04-16T01:21:11.282Z,7.00
2023-04-16T01:23:39.306Z,5.20
2023-04-16T01:26:07.684Z,8.40
2023-04-16T01:28:36.319Z,6.10
2023-04-16T01:31:04.456Z,5.40
2023-04-16T01:33:55.708Z,7.90
2023-04-16T01:36:23.995Z,6.70
2023-04-16T01:38:52.573Z,7.00
2023-04-16T01:41:20.611Z,8.50
2023-04-16T01:43:48.717Z,8.10
2023-04-16T01:46:31.125Z,6.90
2023-04-16T01:48:59.716Z,7.20
2023-04-16T01:51:28.529Z,7.10
2023-04-16T01:53:58.391Z,6.30
2023-04-16T01:56:26.678Z,6.40
2023-04-16T01:58:54.977Z,6.60
2023-04-16T02:03:53.624Z,7.10
2023-04-16T02:06:21.844Z,8.90
2023-04-16T02:08:50.122Z,8.80
2023-04-16T02:11:18.236Z,6.80
2023-04-16T02:13:46.914Z,6.20
2023-04-16T02:16:15.106Z,11.30
2023-04-16T02:19:11.327Z,10.20
2023-04-16T02:21:39.711Z,9.40
2023-04-16T02:24:08.468Z,7.70
2023-04-16T02:26:36.730Z,7.60
2023-04-16T02:29:07.399Z,7.60
2023-04-16T02:31:43.284Z,5.10
2023-04-16T02:34:12.820Z,4.90
2023-04-16T02:36:42.333Z,6.90
2023-04-16T02:39:11.703Z,6.30
2023-04-16T02:41:40.014Z,6.20
2023-04-16T02:44:10.746Z,6.40
2023-04-16T02:46:39.182Z,7.60
2023-04-16T02:49:07.286Z,7.10
2023-04-16T02:51:35.899Z,6.50
2023-04-16T02:54:04.244Z,7.10
2023-04-16T02:56:32.791Z,6.80
2023-04-16T02:59:11.414Z,7.80
2023-04-16T03:01:39.973Z,8.20
2023-04-16T03:04:08.171Z,6.00
2023-04-16T03:06:36.289Z,8.30
2023-04-16T03:09:04.566Z,5.40
2023-04-16T03:11:32.959Z,6.90
2023-04-16T03:14:01.118Z,6.60
2023-04-16T03:16:29.497Z,6.40
2023-04-16T03:18:57.727Z,8.30
2023-04-16T03:21:27.722Z,7.10
2023-04-16T03:23:56.275Z,7.60
2023-04-16T03:26:24.655Z,6.50
2023-04-16T03:28:53.042Z,7.20
2023-04-16T03:31:24.725Z,6.80
2023-04-16T03:33:53.812Z,5.80
2023-04-16T03:36:22.992Z,5.60
2023-04-16T03:38:51.270Z,5.80
2023-04-16T03:41:19.794Z,5.90
2023-04-16T03:43:48.127Z,7.30
2023-04-16T03:46:17.165Z,7.20
2023-04-16T03:48:46.318Z,6.40
2023-04-16T03:51:14.594Z,6.10
2023-04-16T03:53:43.124Z,7.40
2023-04-16T03:56:11.303Z,5.70
2023-04-16T03:58:52.025Z,3.50
2023-04-16T04:01:20.409Z,4.40
2023-04-16T04:03:54.894Z,7.10
2023-04-16T04:06:23.106Z,6.50
2023-04-16T04:08:51.782Z,5.90
2023-04-16T04:11:20.175Z,6.50
2023-04-16T04:13:48.352Z,6.50
2023-04-16T04:16:16.536Z,5.10
2023-04-16T04:18:45.297Z,4.40
2023-04-16T04:21:13.560Z,5.70
2023-04-16T04:23:42.673Z,8.60
2023-04-16T04:26:10.971Z,6.20
2023-04-16T04:28:39.743Z,4.00
2023-04-16T04:31:07.911Z,4.30
2023-04-16T04:33:36.351Z,5.40
2023-04-16T04:36:04.768Z,4.10
2023-04-16T04:38:34.071Z,5.70
2023-04-16T04:41:02.178Z,4.70
2023-04-16T04:43:33.285Z,4.40
2023-04-16T04:46:01.482Z,4.30
2023-04-16T04:48:29.941Z,4.40
2023-04-16T04:50:58.754Z,4.00
2023-04-16T04:53:27.062Z,5.70
2023-04-16T04:55:58.703Z,7.30
2023-04-16T04:58:34.258Z,6.30
2023-04-16T05:01:02.639Z,9.40
2023-04-16T05:03:31.245Z,8.40
2023-04-16T05:05:59.451Z,10.10
2023-04-16T05:08:27.647Z,7.70
2023-04-16T05:10:56.114Z,9.50
2023-04-16T05:13:24.199Z,8.70
2023-04-16T05:15:52.409Z,10.40
2023-04-16T05:18:20.733Z,10.10
2023-04-16T05:20:48.806Z,9.50
2023-04-16T05:23:17.698Z,10.60
2023-04-16T05:25:45.978Z,10.90
2023-04-16T05:28:14.250Z,11.20
2023-04-16T05:30:42.608Z,10.60
2023-04-16T05:33:11.215Z,12.90
2023-04-16T05:35:39.491Z,13.80
2023-04-16T05:38:07.463Z,14.70
2023-04-16T05:40:35.481Z,11.90
2023-04-16T05:43:03.714Z,12.40
2023-04-16T05:45:33.627Z,16.50
2023-04-16T05:48:01.806Z,12.50
2023-04-16T05:50:30.096Z,14.10
2023-04-16T05:52:58.458Z,12.90
2023-04-16T05:55:26.506Z,11.20
2023-04-16T05:57:55.000Z,14.30
2023-04-16T06:00:23.150Z,14.20
2023-04-16T06:02:52.295Z,11.20
2023-04-16T06:05:21.561Z,11.70
2023-04-16T06:07:49.693Z,12.80
2023-04-16T06:10:17.875Z,10.60
2023-04-16T06:12:46.198Z,11.40
2023-04-16T06:15:14.652Z,12.30
2023-04-16T06:17:42.802Z,11.50
2023-04-16T06:20:12.007Z,11.60
2023-04-16T06:22:40.440Z,12.30
2023-04-16T06:25:09.222Z,10.90
2023-04-16T06:27:37.340Z,9.70
2023-04-16T06:30:11.473Z,10.10
2023-04-16T06:32:39.704Z,11.10
2023-04-16T06:35:08.456Z,13.80
2023-04-16T06:40:05.339Z,10.50
2023-04-16T06:42:33.510Z,10.80
2023-04-16T06:45:01.613Z,10.60
2023-04-16T06:47:29.939Z,12.80
2023-04-16T06:49:58.030Z,9.90
2023-04-16T06:52:26.167Z,12.30
2023-04-16T06:54:54.505Z,11.70
2023-04-16T06:57:22.611Z,13.60
2023-04-16T06:59:50.729Z,10.60
2023-04-16T07:02:19.057Z,10.80
2023-04-16T07:07:15.527Z,13.50
2023-04-16T07:12:23.276Z,14.20
2023-04-16T07:14:54.207Z,11.90
2023-04-16T07:17:22.507Z,13.40
2023-04-16T07:19:53.736Z,12.30
2023-04-16T07:22:29.204Z,12.60
2023-04-16T07:24:57.595Z,14.00
2023-04-16T07:27:34.785Z,11.90
2023-04-16T07:30:03.130Z,14.50
2023-04-16T07:32:31.415Z,12.40
2023-04-16T07:34:59.656Z,12.50
2023-04-16T07:37:27.960Z,11.60
2023-04-16T07:39:57.811Z,13.30
2023-04-16T07:42:26.456Z,13.50
2023-04-16T07:44:55.658Z,14.70
2023-04-16T07:47:23.941Z,15.00
2023-04-16T07:49:52.320Z,13.20
2023-04-16T07:52:20.628Z,13.70
2023-04-16T07:54:49.072Z,13.10
2023-04-16T07:57:17.366Z,12.40
2023-04-16T07:59:45.499Z,12.10
2023-04-16T08:02:19.662Z,12.70
2023-04-16T08:04:47.921Z,11.30
2023-04-16T08:07:16.198Z,11.70
2023-04-16T08:09:49.689Z,11.50
2023-04-16T08:12:18.379Z,11.40
2023-04-16T08:14:47.064Z,10.70
2023-04-16T08:17:15.927Z,9.60
2023-04-16T08:19:45.363Z,8.80
2023-04-16T08:22:13.802Z,10.60
2023-04-16T08:24:42.116Z,11.30
2023-04-16T08:27:19.015Z,9.10
2023-04-16T08:29:48.432Z,8.90
2023-04-16T08:32:16.892Z,8.90
2023-04-16T08:34:45.010Z,10.10
2023-04-16T08:37:13.242Z,7.30
2023-04-16T08:39:41.510Z,6.90
2023-04-16T08:42:18.496Z,7.00
2023-04-16T08:44:50.037Z,6.80
2023-04-16T08:47:19.768Z,6.20
2023-04-16T08:49:47.923Z,5.80
2023-04-16T08:52:20.259Z,4.60
2023-04-16T08:54:56.762Z,5.40
2023-04-16T08:57:36.013Z,6.90
2023-04-16T09:00:06.718Z,5.40
2023-04-16T09:02:35.848Z,4.80
2023-04-16T09:05:07.401Z,6.10
2023-04-16T09:07:36.972Z,5.70
2023-04-16T09:10:08.295Z,8.10
2023-04-16T09:12:36.617Z,5.50
2023-04-16T09:15:06.627Z,6.30
2023-04-16T09:17:35.076Z,6.80
2023-04-16T09:20:12.543Z,6.60
2023-04-16T09:22:40.718Z,6.60
2023-04-16T09:25:09.887Z,7.20
2023-04-16T09:27:38.450Z,5.50
2023-04-16T09:30:27.298Z,7.00
2023-04-16T09:35:53.765Z,10.40
2023-04-16T09:38:22.095Z,6.10
2023-04-16T09:41:07.287Z,6.50
2023-04-16T09:43:39.190Z,6.70
2023-04-16T09:46:11.487Z,5.50
2023-04-16T09:48:39.706Z,6.20
2023-04-16T09:51:07.824Z,6.60
2023-04-16T09:53:38.952Z,5.90
2023-04-16T09:56:09.524Z,7.50
2023-04-16T09:58:38.582Z,5.70
2023-04-16T10:01:11.484Z,5.90
2023-04-16T10:03:41.296Z,8.10
2023-04-16T10:06:20.842Z,7.70
2023-04-16T10:08:57.273Z,6.70
2023-04-16T10:11:26.487Z,6.90
2023-04-16T10:13:54.768Z,7.50
2023-04-16T10:16:24.012Z,7.30
2023-04-16T10:18:54.428Z,6.70
2023-04-16T10:21:22.996Z,8.00
2023-04-16T10:23:52.178Z,7.50
2023-04-16T10:26:21.744Z,6.90
2023-04-16T10:28:50.264Z,7.20
2023-04-16T10:31:18.500Z,7.20
2023-04-16T10:33:46.881Z,7.80
2023-04-16T10:36:16.946Z,9.50
2023-04-16T10:38:47.180Z,6.30
2023-04-16T10:41:16.562Z,6.40
2023-04-16T10:43:49.479Z,7.20
2023-04-16T10:46:41.618Z,6.90
2023-04-16T10:49:18.026Z,6.40
2023-04-16T10:51:55.249Z,8.70
2023-04-16T10:54:26.778Z,6.30
2023-04-16T10:57:06.416Z,5.60
2023-04-16T10:59:37.113Z,6.60
2023-04-16T11:02:13.144Z,5.20
2023-04-16T11:04:49.830Z,7.30
2023-04-16T11:07:18.190Z,5.80
2023-04-16T11:10:02.572Z,6.70
2023-04-16T11:12:41.549Z,5.10
2023-04-16T11:15:14.646Z,5.20
2023-04-16T11:17:50.490Z,6.80
2023-04-16T11:20:20.879Z,6.70
2023-04-16T11:22:50.501Z,8.60
2023-04-16T11:25:23.293Z,5.00
2023-04-16T11:27:52.132Z,6.00
2023-04-16T11:32:56.746Z,5.60
2023-04-16T11:35:25.331Z,7.40
2023-04-16T11:37:57.500Z,5.50
2023-04-16T11:40:29.300Z,4.80
2023-04-16T11:43:04.297Z,6.70
2023-04-16T11:45:32.346Z,6.50
2023-04-16T11:48:00.756Z,4.50
2023-04-16T11:50:29.202Z,5.70
2023-04-16T11:53:04.607Z,5.80
2023-04-16T11:55:32.845Z,4.90
2023-04-16T11:58:13.640Z,6.00
2023-04-16T12:00:43.221Z,4.70
2023-04-16T12:03:11.402Z,5.50
2023-04-16T12:05:40.821Z,5.40
2023-04-16T12:08:11.022Z,6.40
2023-04-16T12:10:56.100Z,4.20
2023-04-16T12:13:24.280Z,6.10
2023-04-16T12:15:54.878Z,6.90
2023-04-16T12:18:27.132Z,5.40
2023-04-16T12:20:55.649Z,5.40
2023-04-16T12:23:29.254Z,6.10
2023-04-16T12:26:02.709Z,5.80
2023-04-16T12:28:33.928Z,4.60
2023-04-16T12:31:03.490Z,7.20
2023-04-16T12:33:32.166Z,4.90
2023-04-16T12:36:01.714Z,4.10
2023-04-16T12:38:30.360Z,6.50
2023-04-16T12:40:59.194Z,5.00
2023-04-16T12:43:27.769Z,4.40
2023-04-16T12:48:24.307Z,4.90
2023-04-16T12:50:54.941Z,4.90
2023-04-16T12:53:23.221Z,4.80
2023-04-16T12:55:51.643Z,4.50
2023-04-16T12:58:19.896Z,6.40
2023-04-16T13:00:48.150Z,5.30
2023-04-16T13:03:16.413Z,5.40
2023-04-16T13:05:45.681Z,4.70
2023-04-16T13:08:13.940Z,5.90
2023-04-16T13:10:42.180Z,6.10
2023-04-16T13:13:12.848Z,5.00
2023-04-16T13:15:41.161Z,4.30
2023-04-16T13:18:09.168Z,5.10
2023-04-16T13:20:37.562Z,4.90
2023-04-16T13:23:05.827Z,7.60
2023-04-16T13:25:34.508Z,7.20
2023-04-16T13:28:02.586Z,5.00
2023-04-16T13:30:31.880Z,6.00
2023-04-16T13:33:00.146Z,5.10
2023-04-16T13:35:28.232Z,6.60
2023-04-16T13:37:56.501Z,5.90
2023-04-16T13:40:24.554Z,4.30
2023-04-16T13:42:52.747Z,5.40
2023-04-16T13:45:21.130Z,7.50
2023-04-16T13:47:56.804Z,5.20
2023-04-16T13:50:24.842Z,5.90
2023-04-16T13:52:53.012Z,4.40
2023-04-16T13:55:21.173Z,5.00
2023-04-16T13:57:50.204Z,5.50
2023-04-16T14:00:20.824Z,4.70
2023-04-16T14:02:49.523Z,7.90
2023-04-16T14:05:19.439Z,4.90
2023-04-16T14:07:47.697Z,6.40
2023-04-16T14:10:16.077Z,6.60
2023-04-16T14:12:45.283Z,7.60
2023-04-16T14:17:45.744Z,5.30
2023-04-16T14:20:14.521Z,5.90
2023-04-16T14:22:44.184Z,6.80
2023-04-16T14:25:12.474Z,5.20
2023-04-16T14:27:43.336Z,8.40
2023-04-16T14:30:13.566Z,9.00
2023-04-16T14:32:41.851Z,6.60
2023-04-16T14:35:10.366Z,5.20
2023-04-16T14:37:41.562Z,5.00
2023-04-16T14:40:11.112Z,5.30
2023-04-16T14:42:39.672Z,4.20
2023-04-16T14:45:09.218Z,4.60
2023-04-16T14:47:38.629Z,4.70
2023-04-16T14:50:07.663Z,4.80
2023-04-16T14:52:36.009Z,5.10
2023-04-16T14:55:05.556Z,5.10
2023-04-16T14:57:35.972Z,4.50
2023-04-16T15:00:10.294Z,6.40
2023-04-16T15:02:38.832Z,5.00
2023-04-16T15:05:09.926Z,5.10
2023-04-16T15:07:38.511Z,3.40
2023-04-16T15:10:25.212Z,4.50
2023-04-16T15:12:53.687Z,4.50
2023-04-16T15:15:21.979Z,7.30
2023-04-16T15:17:53.361Z,5.20
2023-04-16T15:20:24.539Z,4.50
2023-04-16T15:22:52.775Z,6.30
2023-04-16T15:25:21.094Z,3.60
2023-04-16T15:27:52.158Z,7.30
2023-04-16T15:30:20.702Z,2.80
2023-04-16T15:32:49.086Z,1.80
2023-04-16T15:35:17.307Z,2.80
2023-04-16T15:37:55.446Z,3.20
2023-04-16T15:40:25.288Z,2.60
2023-04-16T15:42:56.069Z,5.20
2023-04-16T15:45:24.390Z,3.80
2023-04-16T15:47:52.807Z,4.20
2023-04-16T15:50:21.290Z,4.80
2023-04-16T15:52:49.575Z,6.30
2023-04-16T15:55:18.573Z,3.60
2023-04-16T15:57:46.640Z,3.50
2023-04-16T16:00:17.210Z,4.20
2023-04-16T16:02:49.325Z,3.60
2023-04-16T16:05:17.710Z,3.50
2023-04-16T16:07:46.423Z,4.40
2023-04-16T16:10:14.526Z,3.00
2023-04-16T16:12:42.880Z,3.70
2023-04-16T16:15:11.380Z,6.20
2023-04-16T16:17:40.832Z,6.50
2023-04-16T16:20:13.004Z,3.80
2023-04-16T16:22:43.085Z,4.30
2023-04-16T16:25:11.408Z,4.90
2023-04-16T16:27:40.805Z,4.70
2023-04-16T16:30:09.805Z,4.70
2023-04-16T16:32:41.095Z,7.70
2023-04-16T16:35:11.075Z,8.10
2023-04-16T16:37:39.589Z,7.30
2023-04-16T16:40:08.944Z,8.60
2023-04-16T16:42:37.130Z,7.00
2023-04-16T16:45:06.333Z,8.90
2023-04-16T16:50:03.317Z,6.80
2023-04-16T16:52:32.273Z,5.50
2023-04-16T16:55:01.387Z,4.50
2023-04-16T16:57:29.463Z,5.50
2023-04-16T16:59:57.626Z,5.10
2023-04-16T17:02:25.812Z,6.20
2023-04-16T17:04:54.074Z,6.00
2023-04-16T17:07:22.153Z,6.60
2023-04-16T17:09:50.438Z,5.10
2023-04-16T17:12:18.608Z,6.40
2023-04-16T17:14:50.151Z,5.30
2023-04-16T17:17:19.164Z,6.70
2023-04-16T17:19:47.417Z,5.40
2023-04-16T17:22:18.664Z,5.20
2023-04-16T17:24:47.252Z,4.50
2023-04-16T17:27:15.576Z,5.00
2023-04-16T17:29:43.735Z,6.40
2023-04-16T17:32:11.895Z,7.00
2023-04-16T17:34:40.266Z,11.90
2023-04-16T17:37:08.619Z,6.60
2023-04-16T17:39:37.112Z,6.10
2023-04-16T17:42:05.500Z,9.60
2023-04-16T17:44:33.705Z,7.10
2023-04-16T17:47:02.260Z,8.50
2023-04-16T17:49:30.608Z,5.50
2023-04-16T17:51:58.903Z,7.60
2023-04-16T17:54:27.089Z,5.30
2023-04-16T17:56:55.358Z,10.00
2023-04-16T17:59:23.413Z,5.10
2023-04-16T18:01:52.170Z,5.20
2023-04-16T18:04:20.701Z,5.60
2023-04-16T18:06:49.048Z,5.50
2023-04-16T18:09:17.351Z,4.10
2023-04-16T18:11:45.718Z,5.00
2023-04-16T18:14:16.886Z,5.50
2023-04-16T18:16:47.001Z,6.20
2023-04-16T18:19:17.946Z,5.30
2023-04-16T18:21:46.213Z,7.30
2023-04-16T18:24:15.511Z,5.00
2023-04-16T18:26:46.913Z,5.80
2023-04-16T18:29:15.585Z,6.20
2023-04-16T18:31:45.139Z,3.90
2023-04-16T18:34:15.602Z,7.60
2023-04-16T18:36:43.878Z,7.10
2023-04-16T18:39:12.143Z,4.40
2023-04-16T18:41:40.978Z,4.30
2023-04-16T18:44:19.938Z,5.20
2023-04-16T18:46:50.902Z,5.80
2023-04-16T18:49:19.170Z,17.60
2023-04-16T18:51:47.442Z,14.50
2023-04-16T18:54:15.615Z,20.50
2023-04-16T18:56:43.793Z,14.70
2023-04-16T18:59:12.551Z,21.60
2023-04-16T19:01:41.472Z,9.50
2023-04-16T19:04:09.902Z,12.70
2023-04-16T19:06:40.586Z,15.00
2023-04-16T19:09:11.291Z,12.80
2023-04-16T19:11:39.880Z,8.00
2023-04-16T19:14:20.161Z,4.50
2023-04-16T19:16:57.350Z,4.40
2023-04-16T19:19:25.583Z,4.60
2023-04-16T19:21:53.804Z,3.80
2023-04-16T19:24:23.734Z,4.00
2023-04-16T19:26:51.898Z,5.40
2023-04-16T19:29:33.480Z,5.30
2023-04-16T19:32:02.660Z,5.60
2023-04-16T19:34:31.080Z,6.90
2023-04-16T19:36:59.213Z,6.10
2023-04-16T19:39:30.480Z,5.30
2023-04-16T19:41:58.482Z,5.50
2023-04-16T19:44:27.717Z,5.40
2023-04-16T19:46:56.643Z,5.30
2023-04-16T19:49:34.524Z,5.70
2023-04-16T19:52:02.946Z,6.10
2023-04-16T19:54:33.825Z,4.70
2023-04-16T19:57:02.238Z,5.80
2023-04-16T19:59:32.370Z,6.00
2023-04-16T20:02:00.828Z,4.60
2023-04-16T20:04:29.060Z,6.50
2023-04-16T20:06:57.298Z,4.50
2023-04-16T20:09:25.878Z,7.30
2023-04-16T20:11:53.919Z,4.60
2023-04-16T20:14:22.032Z,6.10
2023-04-16T20:16:50.406Z,4.30
2023-04-16T20:19:19.700Z,4.90
2023-04-16T20:21:47.774Z,4.50
2023-04-16T20:24:16.099Z,5.00
2023-04-16T20:26:44.121Z,5.50
2023-04-16T20:29:12.382Z,4.90
2023-04-16T20:31:43.028Z,6.00
2023-04-16T20:34:11.335Z,5.80
2023-04-16T20:36:39.603Z,8.40
2023-04-16T20:39:08.180Z,6.30
2023-04-16T20:41:40.333Z,6.70
2023-04-16T20:44:10.245Z,7.00
2023-04-16T20:46:38.971Z,5.90
2023-04-16T20:54:10.431Z,5.50
2023-04-16T20:56:38.705Z,4.80
2023-04-16T20:59:06.875Z,6.20
2023-04-16T21:01:35.549Z,7.40
2023-04-16T21:04:04.272Z,4.80
2023-04-16T21:06:34.100Z,7.70
2023-04-16T21:09:02.450Z,5.10
2023-04-16T21:11:33.499Z,4.20
2023-04-16T21:14:02.929Z,5.60
2023-04-16T21:16:32.146Z,4.20
2023-04-16T21:19:00.667Z,5.50
2023-04-16T21:21:28.692Z,3.80
2023-04-16T21:23:56.838Z,3.80
2023-04-16T21:26:25.001Z,4.50
2023-04-16T21:28:55.062Z,4.80
2023-04-16T21:31:26.888Z,4.80
2023-04-16T21:34:02.649Z,4.10
2023-04-16T21:36:34.206Z,5.00
2023-04-16T21:39:02.664Z,4.40
2023-04-16T21:41:30.931Z,5.60
2023-04-16T21:43:59.191Z,5.30
2023-04-16T21:46:27.902Z,4.40
2023-04-16T21:48:56.070Z,4.70
2023-04-16T21:51:29.527Z,4.80
2023-04-16T21:53:58.660Z,4.60
2023-04-16T21:56:28.072Z,5.70
2023-04-16T21:58:56.191Z,3.40
2023-04-16T22:01:24.365Z,4.00
2023-04-16T22:03:52.829Z,4.00
2023-04-16T22:06:21.179Z,4.00
2023-04-16T22:08:50.149Z,5.00
2023-04-16T22:11:18.524Z,4.50
2023-04-16T22:13:47.855Z,6.20
2023-04-16T22:18:45.226Z,5.20
2023-04-16T22:21:13.469Z,4.20
2023-04-16T22:23:41.770Z,3.50
2023-04-16T22:26:10.170Z,5.90
2023-04-16T22:28:38.311Z,4.30
2023-04-16T22:31:06.911Z,5.20
2023-04-16T22:33:35.197Z,4.20
2023-04-16T22:36:03.677Z,3.80
2023-04-16T22:38:31.962Z,3.90
2023-04-16T22:41:00.258Z,4.30
2023-04-16T22:43:28.625Z,4.70
2023-04-16T22:46:07.305Z,4.80
2023-04-16T22:48:38.102Z,3.90
2023-04-16T22:51:08.775Z,4.40
2023-04-16T22:53:37.271Z,5.00
2023-04-16T22:56:09.740Z,3.90
2023-04-16T22:58:38.535Z,4.20
2023-04-16T23:01:09.494Z,4.00
2023-04-16T23:03:41.633Z,4.40
2023-04-16T23:06:10.428Z,4.10
2023-04-16T23:09:06.372Z,4.80
2023-04-16T23:11:46.429Z,4.50
2023-04-16T23:14:16.790Z,4.10
2023-04-16T23:16:45.078Z,6.00
2023-04-16T23:19:26.191Z,4.60
2023-04-16T23:21:56.829Z,4.00
2023-04-16T23:24:45.341Z,7.10
2023-04-16T23:27:33.822Z,6.90
2023-04-16T23:30:03.124Z,5.10
2023-04-16T23:35:22.876Z,4.30
2023-04-16T23:37:51.644Z,4.30
2023-04-16T23:40:19.992Z,5.40
2023-04-16T23:42:48.163Z,4.60
2023-04-16T23:45:26.637Z,5.10
2023-04-16T23:47:55.143Z,5.10
2023-04-16T23:50:23.338Z,4.80
2023-04-16T23:52:51.623Z,4.90
2023-04-16T23:55:19.852Z,4.80
2023-04-16T23:57:47.970Z,4.40
